createdAt,value
2019-02-02T00:02:27.499Z,90.90
2019-02-02T00:07:28.773Z,90.80
2019-02-02T00:12:30.387Z,90.80
2019-02-02T00:17:31.693Z,90.80
2019-02-02T00:22:33.082Z,91.00
2019-02-02T00:27:41.038Z,90.90
2019-02-02T00:32:37.509Z,90.70
2019-02-02T00:37:38.753Z,90.60
2019-02-02T00:42:40.038Z,90.30
2019-02-02T00:47:41.358Z,90.60
2019-02-02T00:52:42.646Z,90.90
2019-02-02T00:57:52.948Z,91.20
2019-02-02T01:02:47.346Z,91.10
2019-02-02T01:07:49.930Z,91.00
2019-02-02T01:12:51.218Z,91.20
2019-02-02T01:17:52.522Z,90.90
2019-02-02T01:22:53.802Z,91.00
2019-02-02T01:28:04.908Z,90.90
2019-02-02T01:32:58.272Z,90.80
2019-02-02T01:38:00.236Z,90.90
2019-02-02T01:43:01.545Z,91.20
2019-02-02T01:48:02.830Z,91.70
2019-02-02T01:53:04.139Z,91.60
2019-02-02T01:58:16.305Z,91.30
2019-02-02T02:03:12.059Z,91.20
2019-02-02T02:08:13.646Z,90.50
2019-02-02T02:13:14.923Z,90.70
2019-02-02T02:18:16.248Z,91.40
2019-02-02T02:23:17.698Z,91.10
2019-02-02T02:28:27.804Z,91.80
2019-02-02T02:33:22.065Z,91.50
2019-02-02T02:38:23.421Z,93.20
2019-02-02T02:43:24.690Z,93.30
2019-02-02T02:48:25.969Z,93.80
2019-02-02T02:53:27.300Z,93.20
2019-02-02T02:58:40.419Z,92.40
2019-02-02T03:03:31.693Z,92.20
2019-02-02T03:08:33.244Z,91.80
2019-02-02T03:13:34.491Z,91.50
2019-02-02T03:18:35.783Z,91.60
2019-02-02T03:23:37.087Z,91.50
2019-02-02T03:28:38.366Z,91.20
2019-02-02T03:33:39.650Z,91.50
2019-02-02T03:38:41.323Z,91.10
2019-02-02T03:43:42.972Z,91.40
2019-02-02T03:48:44.246Z,91.10
2019-02-02T03:53:45.535Z,92.10
2019-02-02T03:58:46.819Z,92.20
2019-02-02T04:03:48.490Z,91.70
2019-02-02T04:08:49.794Z,91.50
2019-02-02T04:13:51.078Z,91.40
2019-02-02T04:18:52.374Z,91.30
2019-02-02T04:23:53.667Z,91.20
2019-02-02T04:28:54.962Z,91.20
2019-02-02T04:33:56.611Z,91.10
2019-02-02T04:38:57.907Z,91.00
2019-02-02T04:43:59.211Z,90.80
2019-02-02T04:49:00.597Z,90.90
2019-02-02T04:54:02.197Z,90.70
2019-02-02T04:59:03.873Z,91.10
2019-02-02T05:04:05.160Z,91.10
2019-02-02T05:09:06.597Z,91.50
2019-02-02T05:14:07.892Z,91.50
2019-02-02T05:19:09.630Z,92.20
2019-02-02T05:24:10.933Z,92.30
2019-02-02T05:29:12.221Z,92.40
2019-02-02T05:34:13.509Z,92.40
2019-02-02T05:39:14.814Z,91.80
2019-02-02T05:44:16.072Z,91.80
2019-02-02T05:49:17.889Z,91.40
2019-02-02T05:54:19.263Z,91.30
2019-02-02T05:59:20.644Z,91.20
2019-02-02T06:04:22.086Z,91.00
2019-02-02T06:09:23.444Z,90.90
2019-02-02T06:14:24.746Z,91.20
2019-02-02T06:19:26.425Z,91.50
2019-02-02T06:24:27.707Z,91.40
2019-02-02T06:29:29.007Z,91.50
2019-02-02T06:34:30.311Z,91.00
2019-02-02T06:39:31.590Z,91.40
2019-02-02T06:44:32.899Z,91.30
2019-02-02T06:49:34.212Z,91.20
2019-02-02T06:54:35.916Z,91.00
2019-02-02T06:59:37.218Z,91.10
2019-02-02T07:04:38.510Z,90.90
2019-02-02T07:09:40.025Z,90.70
2019-02-02T07:14:41.324Z,90.80
2019-02-02T07:19:42.614Z,90.90
2019-02-02T07:24:43.992Z,90.80
2019-02-02T07:29:45.246Z,91.00
2019-02-02T07:34:46.548Z,90.80
2019-02-02T07:39:48.233Z,90.60
2019-02-02T07:44:49.492Z,90.70
2019-02-02T07:49:50.788Z,90.90
2019-02-02T07:54:52.083Z,90.70
2019-02-02T07:59:53.386Z,90.80
2019-02-02T08:04:54.669Z,90.80
2019-02-02T08:09:56.446Z,90.50
2019-02-02T08:14:57.799Z,90.40
2019-02-02T08:19:59.151Z,89.70
2019-02-02T08:25:00.465Z,90.00
2019-02-02T08:30:02.172Z,89.60
2019-02-02T08:35:05.390Z,88.40
2019-02-02T08:40:10.333Z,85.10
2019-02-02T08:45:12.820Z,82.90
2019-02-02T08:50:26.684Z,83.80
2019-02-02T08:55:28.457Z,81.00
2019-02-02T09:00:30.165Z,75.50
2019-02-02T09:05:31.486Z,69.60
2019-02-02T09:10:32.806Z,66.30
2019-02-02T09:15:34.102Z,60.80
2019-02-02T09:20:37.812Z,64.80
2019-02-02T09:25:39.430Z,70.20
2019-02-02T09:30:40.825Z,73.10
2019-02-02T09:35:42.144Z,74.20
2019-02-02T09:40:43.444Z,70.00
2019-02-02T09:45:44.953Z,65.70
2019-02-02T09:50:46.586Z,65.80
2019-02-02T09:55:47.882Z,68.70
2019-02-02T10:00:49.298Z,69.50
2019-02-02T10:05:50.606Z,70.40
2019-02-02T10:10:52.202Z,72.50
2019-02-02T10:15:53.528Z,66.00
2019-02-02T10:21:03.747Z,57.30
2019-02-02T10:25:58.384Z,52.80
2019-02-02T10:30:59.923Z,49.10
2019-02-02T10:36:01.224Z,48.80
2019-02-02T10:41:02.891Z,49.90
2019-02-02T10:46:04.425Z,45.70
2019-02-02T10:51:05.726Z,40.00
2019-02-02T10:56:07.129Z,39.80
2019-02-02T11:01:08.434Z,44.30
2019-02-02T11:06:29.871Z,42.00
2019-02-02T11:11:31.204Z,44.30
2019-02-02T11:16:33.043Z,43.20
2019-02-02T11:21:36.246Z,43.90
2019-02-02T11:26:38.428Z,51.70
2019-02-02T11:31:40.358Z,46.30
2019-02-02T11:36:43.759Z,41.50
2019-02-02T11:41:45.141Z,41.00
2019-02-02T11:46:46.625Z,43.40
2019-02-02T11:51:47.915Z,43.30
2019-02-02T11:56:49.208Z,39.40
2019-02-02T12:01:50.619Z,37.20
2019-02-02T12:06:52.038Z,34.20
2019-02-02T12:11:53.574Z,33.80
2019-02-02T12:16:54.865Z,33.60
2019-02-02T12:21:56.474Z,32.20
2019-02-02T12:26:58.395Z,30.00
2019-02-02T12:31:59.726Z,28.50
2019-02-02T12:37:01.024Z,29.80
2019-02-02T12:42:02.544Z,34.30
2019-02-02T12:47:04.057Z,40.20
2019-02-02T12:52:07.400Z,44.60
2019-02-02T12:57:08.691Z,47.40
2019-02-02T13:02:10.439Z,47.60
2019-02-02T13:07:12.319Z,49.30
2019-02-02T13:12:13.882Z,51.80
2019-02-02T13:17:15.765Z,52.20
2019-02-02T13:22:17.293Z,53.70
2019-02-02T13:27:18.942Z,54.60
2019-02-02T13:32:20.245Z,54.90
2019-02-02T13:37:21.778Z,54.80
2019-02-02T13:42:23.450Z,55.40
2019-02-02T13:47:24.990Z,54.70
2019-02-02T13:52:26.714Z,55.70
2019-02-02T13:57:28.586Z,54.90
2019-02-02T14:02:30.258Z,55.80
2019-02-02T14:07:33.052Z,57.70
2019-02-02T14:12:47.267Z,56.10
2019-02-02T14:17:49.000Z,57.50
2019-02-02T14:22:50.853Z,58.90
2019-02-02T14:27:52.652Z,59.10
2019-02-02T14:32:54.824Z,60.00
2019-02-02T14:37:56.615Z,59.50
2019-02-02T14:42:57.933Z,60.00
2019-02-02T14:47:59.589Z,60.60
2019-02-02T14:53:01.117Z,60.60
2019-02-02T14:58:02.854Z,60.80
2019-02-02T15:03:04.266Z,58.70
2019-02-02T15:08:05.812Z,59.20
2019-02-02T15:13:07.611Z,61.70
2019-02-02T15:18:09.785Z,62.70
2019-02-02T15:23:11.324Z,63.00
2019-02-02T15:28:12.983Z,63.10
2019-02-02T15:33:14.255Z,64.10
2019-02-02T15:38:18.900Z,64.10
2019-02-02T15:43:22.066Z,64.50
2019-02-02T15:48:22.376Z,65.10
2019-02-02T15:53:24.148Z,64.30
2019-02-02T15:58:25.552Z,65.00
2019-02-02T16:03:26.874Z,67.40
2019-02-02T16:08:28.425Z,67.70
2019-02-02T16:13:29.764Z,68.60
2019-02-02T16:18:31.076Z,69.40
2019-02-02T16:23:32.372Z,70.00
2019-02-02T16:28:34.791Z,69.90
2019-02-02T16:33:36.672Z,69.70
2019-02-02T16:38:38.451Z,70.40
2019-02-02T16:43:40.858Z,70.60
2019-02-02T16:48:42.853Z,71.00
2019-02-02T16:53:44.633Z,71.70
2019-02-02T16:58:47.423Z,72.30
2019-02-02T17:03:49.835Z,73.20
2019-02-02T17:08:51.382Z,74.30
2019-02-02T17:13:52.940Z,74.30
2019-02-02T17:18:54.847Z,74.20
2019-02-02T17:23:56.130Z,75.50
2019-02-02T17:28:57.901Z,74.80
2019-02-02T17:33:59.469Z,75.30
2019-02-02T17:39:01.042Z,75.80
2019-02-02T17:44:03.041Z,75.50
2019-02-02T17:49:04.618Z,74.70
2019-02-02T17:54:06.774Z,74.00
2019-02-02T17:59:08.378Z,72.90
2019-02-02T18:04:09.890Z,72.00
2019-02-02T18:09:11.533Z,72.20
2019-02-02T18:14:13.544Z,71.80
2019-02-02T18:19:15.083Z,72.20
2019-02-02T18:24:17.858Z,71.60
2019-02-02T18:29:20.664Z,70.80
2019-02-02T18:34:23.086Z,71.50
2019-02-02T18:39:25.726Z,70.70
2019-02-02T18:44:28.458Z,70.50
2019-02-02T18:49:30.914Z,70.70
2019-02-02T18:54:33.685Z,70.90
2019-02-02T18:59:38.021Z,71.00
2019-02-02T19:04:40.291Z,70.80
2019-02-02T19:09:42.717Z,71.10
2019-02-02T19:14:45.214Z,71.40
2019-02-02T19:19:47.915Z,71.10
2019-02-02T19:24:50.745Z,71.60
2019-02-02T19:29:53.565Z,72.00
2019-02-02T19:34:57.340Z,72.10
2019-02-02T19:40:00.504Z,72.20
2019-02-02T19:45:04.970Z,72.90
2019-02-02T19:50:13.554Z,73.60
2019-02-02T19:55:17.037Z,73.90
2019-02-02T20:00:22.084Z,74.40
2019-02-02T20:05:28.627Z,75.10
2019-02-02T20:10:30.095Z,75.70
2019-02-02T20:15:33.894Z,76.10
2019-02-02T20:20:37.194Z,76.10
2019-02-02T20:25:39.840Z,75.70
2019-02-02T20:30:43.226Z,75.00
2019-02-02T20:35:48.382Z,75.00
2019-02-02T20:40:51.297Z,75.60
2019-02-02T20:45:54.398Z,75.60
2019-02-02T20:50:57.720Z,76.40
2019-02-02T20:56:01.609Z,76.00
2019-02-02T21:01:04.711Z,76.60
2019-02-02T21:06:07.778Z,76.30
2019-02-02T21:11:10.773Z,76.70
2019-02-02T21:16:14.270Z,76.60
2019-02-02T21:21:17.593Z,76.70
2019-02-02T21:26:20.010Z,77.10
2019-02-02T21:31:23.059Z,77.00
2019-02-02T21:36:25.517Z,77.30
2019-02-02T21:41:28.015Z,76.60
2019-02-02T21:46:30.308Z,76.60
2019-02-02T21:51:33.015Z,76.70
2019-02-02T21:56:35.309Z,76.20
2019-02-02T22:01:37.155Z,77.10
2019-02-02T22:06:39.269Z,76.80
2019-02-02T22:11:40.832Z,77.40
2019-02-02T22:16:42.717Z,77.50
2019-02-02T22:21:44.391Z,77.30
2019-02-02T22:26:45.669Z,77.40
2019-02-02T22:31:48.433Z,76.90
2019-02-02T22:36:49.699Z,77.40
2019-02-02T22:41:51.005Z,77.20
2019-02-02T22:46:52.781Z,76.90
2019-02-02T22:51:54.768Z,77.00
2019-02-02T23:01:58.425Z,76.70
2019-02-02T23:07:06.681Z,77.40
2019-02-02T23:12:21.061Z,77.20
2019-02-02T23:17:22.701Z,78.40
2019-02-02T23:22:24.022Z,78.70
2019-02-02T23:27:25.399Z,78.80
2019-02-02T23:32:27.098Z,78.50
2019-02-02T23:37:28.724Z,78.40
2019-02-02T23:42:30.010Z,78.80
2019-02-02T23:47:31.318Z,78.90
2019-02-02T23:52:32.643Z,79.00
2019-02-02T23:57:34.253Z,79.30
